Station Historical Data
Daily Summary for January 8, 2018 Units:  Both    English   Metric
« Previous Day
Next Day »
Daily Weekly Monthly Yearly Custom
  High: Low: Average:
Temperature: 34.2 °F /  1.2 °C 30.8 °F /  -0.7 °C 33.2 °F /  0.7 °C
Dew Point: 31.4 °F /  -0.3 °C 17.3 °F /  -8.2 °C 28.6 °F /  -1.9 °C
Humidity: 91% 57% 84%
Wind Speed: 23.0mph /  37km/h - 9.9mph /  15.9km/h
Wind Gust: 28.0mph /  45.1km/h - -
Wind- - SW
Pressure: 30.00 in /  1015.8 hPa 29.87 in /  1011.4 hPa -
Precipitation: 0.31 in /  7.87 mm    
Historical Graphs
 
 
Tabular Data for January 8, 2018
Time Temperature Dew Point Pressure Wind Wind Speed Wind Gust Humidity Rainfall Rate (Hourly)
04:15 31.0 °F /  -0.6 °C 17.9 °F /  -7.8 °C 30.00in /  1015.8hPa SW 5.0mph /  8km/h 12.0mph /  19.3km/h 58% 0.00in /  0mm
04:24 31.0 °F /  -0.6 °C 17.9 °F /  -7.8 °C 30.00in /  1015.8hPa SSW 6.0mph /  9.7km/h 11.0mph /  17.7km/h 58% 0.00in /  0mm
04:35 31.0 °F /  -0.6 °C 17.9 °F /  -7.8 °C 29.99in /  1015.5hPa SW 6.0mph /  9.7km/h 8.0mph /  12.9km/h 58% 0.00in /  0mm
04:45 30.9 °F /  -0.6 °C 17.8 °F /  -7.9 °C 29.99in /  1015.5hPa SSW 3.0mph /  4.8km/h 9.0mph /  14.5km/h 58% 0.00in /  0mm
04:50 30.8 °F /  -0.7 °C 17.7 °F /  -7.9 °C 29.99in /  1015.5hPa South 5.0mph /  8km/h 6.0mph /  9.7km/h 58% 0.00in /  0mm
04:55 30.8 °F /  -0.7 °C 17.3 °F /  -8.2 °C 29.99in /  1015.5hPa SSW 3.0mph /  4.8km/h 7.0mph /  11.3km/h 57% 0.00in /  0mm
05:00 30.8 °F /  -0.7 °C 17.3 °F /  -8.2 °C 29.98in /  1015.1hPa SSW 3.0mph /  4.8km/h 7.0mph /  11.3km/h 57% 0.00in /  0mm
05:05 30.9 °F /  -0.6 °C 17.4 °F /  -8.1 °C 29.98in /  1015.1hPa SSW 3.0mph /  4.8km/h 8.0mph /  12.9km/h 57% 0.00in /  0mm
05:15 30.9 °F /  -0.6 °C 17.4 °F /  -8.1 °C 29.97in /  1014.8hPa SSW 4.0mph /  6.4km/h 9.0mph /  14.5km/h 57% 0.00in /  0mm
05:20 31.0 °F /  -0.6 °C 17.5 °F /  -8.1 °C 29.97in /  1014.8hPa SSW 4.0mph /  6.4km/h 9.0mph /  14.5km/h 57% 0.00in /  0mm
05:25 31.0 °F /  -0.6 °C 17.5 °F /  -8.1 °C 29.97in /  1014.8hPa SSW 3.0mph /  4.8km/h 7.0mph /  11.3km/h 57% 0.00in /  0mm
05:34 31.1 °F /  -0.5 °C 17.6 °F /  -8 °C 29.96in /  1014.4hPa SSW 4.0mph /  6.4km/h 9.0mph /  14.5km/h 57% 0.00in /  0mm
05:40 31.3 °F /  -0.4 °C 17.8 °F /  -7.9 °C 29.96in /  1014.4hPa SSW 7.0mph /  11.3km/h 8.0mph /  12.9km/h 57% 0.00in /  0mm
05:45 31.5 °F /  -0.3 °C 18.0 °F /  -7.8 °C 29.95in /  1014.1hPa SW 3.0mph /  4.8km/h 11.0mph /  17.7km/h 57% 0.00in /  0mm
05:50 31.7 °F /  -0.2 °C 18.2 °F /  -7.7 °C 29.95in /  1014.1hPa South 4.0mph /  6.4km/h 12.0mph /  19.3km/h 57% 0.00in /  0mm
06:00 32.1 °F /  0.1 °C 18.6 °F /  -7.4 °C 29.95in /  1014.1hPa SW 4.0mph /  6.4km/h 11.0mph /  17.7km/h 57% 0.00in /  0mm
06:10 32.3 °F /  0.2 °C 19.2 °F /  -7.1 °C 29.95in /  1014.1hPa South 5.0mph /  8km/h 15.0mph /  24.1km/h 58% 0.00in /  0mm
06:15 32.4 °F /  0.2 °C 19.7 °F /  -6.8 °C 29.95in /  1014.1hPa WSW 6.0mph /  9.7km/h 17.0mph /  27.4km/h 59% 0.00in /  0mm
06:30 32.5 °F /  0.3 °C 21.7 °F /  -5.7 °C 29.94in /  1013.8hPa SSW 7.0mph /  11.3km/h 13.0mph /  20.9km/h 64% 0.00in /  0mm
06:35 32.4 °F /  0.2 °C 21.9 °F /  -5.6 °C 29.94in /  1013.8hPa SSW 7.0mph /  11.3km/h 12.0mph /  19.3km/h 65% 0.00in /  0mm
06:40 32.3 °F /  0.2 °C 22.2 °F /  -5.4 °C 29.94in /  1013.8hPa SSW 6.0mph /  9.7km/h 12.0mph /  19.3km/h 66% 0.00in /  0mm
06:50 32.1 °F /  0.1 °C 23.4 °F /  -4.8 °C 29.93in /  1013.4hPa SSW 6.0mph /  9.7km/h 12.0mph /  19.3km/h 70% 0.00in /  0mm
07:00 31.8 °F /  -0.1 °C 24.1 °F /  -4.4 °C 29.93in /  1013.4hPa SSW 6.0mph /  9.7km/h 14.0mph /  22.5km/h 73% 0.00in /  0mm
07:10 31.7 °F /  -0.2 °C 24.7 °F /  -4.1 °C 29.92in /  1013.1hPa SSW 6.0mph /  9.7km/h 12.0mph /  19.3km/h 75% 0.00in /  0mm
07:15 31.7 °F /  -0.2 °C 25.0 °F /  -3.9 °C 29.92in /  1013.1hPa SSW 6.0mph /  9.7km/h 14.0mph /  22.5km/h 76% 0.00in /  0mm
07:30 31.8 °F /  -0.1 °C 26.0 °F /  -3.3 °C 29.91in /  1012.8hPa SSW 6.0mph /  9.7km/h 11.0mph /  17.7km/h 79% 0.00in /  0mm
07:40 32.1 °F /  0.1 °C 26.6 °F /  -3 °C 29.90in /  1012.4hPa SSW 6.0mph /  9.7km/h 14.0mph /  22.5km/h 80% 0.00in /  0mm
07:50 32.2 °F /  0.1 °C 27.0 °F /  -2.8 °C 29.89in /  1012.1hPa SSW 7.0mph /  11.3km/h 14.0mph /  22.5km/h 81% 0.00in /  0mm
08:00 32.2 °F /  0.1 °C 27.6 °F /  -2.4 °C 29.89in /  1012.1hPa SSW 7.0mph /  11.3km/h 13.0mph /  20.9km/h 83% 0.00in /  0mm
08:10 32.0 °F /  0 °C 27.7 °F /  -2.4 °C 29.89in /  1012.1hPa SSW 8.0mph /  12.9km/h 17.0mph /  27.4km/h 84% 0.00in /  0mm
08:20 31.7 °F /  -0.2 °C 28.0 °F /  -2.2 °C 29.89in /  1012.1hPa SSW 8.0mph /  12.9km/h 16.0mph /  25.7km/h 86% 0.00in /  0mm
08:40 31.4 °F /  -0.3 °C 28.0 °F /  -2.2 °C 29.89in /  1012.1hPa SSW 7.0mph /  11.3km/h 18.0mph /  29km/h 87% 0.00in /  0mm
08:55 31.4 °F /  -0.3 °C 28.3 °F /  -2.1 °C 29.89in /  1012.1hPa SSW 7.0mph /  11.3km/h 15.0mph /  24.1km/h 88% 0.00in /  0mm
09:00 31.4 °F /  -0.3 °C 28.3 °F /  -2.1 °C 29.89in /  1012.1hPa SSW 8.0mph /  12.9km/h 15.0mph /  24.1km/h 88% 0.00in /  0mm
09:05 31.4 °F /  -0.3 °C 28.3 °F /  -2.1 °C 29.89in /  1012.1hPa SSE 15.0mph /  24.1km/h 18.0mph /  29km/h 88% 0.00in /  0mm
09:10 31.4 °F /  -0.3 °C 28.5 °F /  -1.9 °C 29.89in /  1012.1hPa SSE 3.0mph /  4.8km/h 15.0mph /  24.1km/h 89% 0.00in /  0mm
09:25 31.5 °F /  -0.3 °C 28.6 °F /  -1.9 °C 29.89in /  1012.1hPa SSW 7.0mph /  11.3km/h 17.0mph /  27.4km/h 89% 0.00in /  0mm
09:45 32.0 °F /  0 °C 29.4 °F /  -1.4 °C 29.89in /  1012.1hPa SW 9.0mph /  14.5km/h 19.0mph /  30.6km/h 90% 0.00in /  0mm
10:05 32.5 °F /  0.3 °C 29.9 °F /  -1.2 °C 29.89in /  1012.1hPa SW 12.0mph /  19.3km/h 25.0mph /  40.2km/h 90% 0.00in /  0mm
10:15 32.6 °F /  0.3 °C 30.0 °F /  -1.1 °C 29.89in /  1012.1hPa SW 11.0mph /  17.7km/h 22.0mph /  35.4km/h 90% 0.00in /  0mm
10:20 32.6 °F /  0.3 °C 30.0 °F /  -1.1 °C 29.89in /  1012.1hPa SW 10.0mph /  16.1km/h 22.0mph /  35.4km/h 90% 0.00in /  0mm
10:40 33.0 °F /  0.6 °C 30.4 °F /  -0.9 °C 29.89in /  1012.1hPa SW 12.0mph /  19.3km/h 24.0mph /  38.6km/h 90% 0.00in /  0mm
11:05 33.0 °F /  0.6 °C 30.4 °F /  -0.9 °C 29.89in /  1012.1hPa SW 10.0mph /  16.1km/h 21.0mph /  33.8km/h 90% 0.00in /  0mm
11:15 33.3 °F /  0.7 °C 30.7 °F /  -0.7 °C 29.89in /  1012.1hPa WSW 15.0mph /  24.1km/h 22.0mph /  35.4km/h 90% 0.00in /  0mm
11:25 33.4 °F /  0.8 °C 30.8 °F /  -0.7 °C 29.89in /  1012.1hPa SW 11.0mph /  17.7km/h 23.0mph /  37km/h 90% 0.00in /  0mm
11:35 33.5 °F /  0.8 °C 30.9 °F /  -0.6 °C 29.88in /  1011.7hPa SW 11.0mph /  17.7km/h 24.0mph /  38.6km/h 90% 0.00in /  0mm
11:45 34.0 °F /  1.1 °C 31.1 °F /  -0.5 °C 29.88in /  1011.7hPa SW 12.0mph /  19.3km/h 23.0mph /  37km/h 89% 0.00in /  0mm
11:59 33.9 °F /  1.1 °C 31.0 °F /  -0.6 °C 29.87in /  1011.4hPa SW 12.0mph /  19.3km/h 24.0mph /  38.6km/h 89% 0.00in /  0mm
12:25 33.8 °F /  1 °C 30.9 °F /  -0.6 °C 29.87in /  1011.4hPa SW 12.0mph /  19.3km/h 23.0mph /  37km/h 89% 0.00in /  0mm
12:30 33.9 °F /  1.1 °C 31.0 °F /  -0.6 °C 29.87in /  1011.4hPa West 9.0mph /  14.5km/h 22.0mph /  35.4km/h 89% 0.00in /  0mm
12:40 33.9 °F /  1.1 °C 31.0 °F /  -0.6 °C 29.87in /  1011.4hPa SW 13.0mph /  20.9km/h 26.0mph /  41.8km/h 89% 0.00in /  0mm
12:54 33.9 °F /  1.1 °C 31.0 °F /  -0.6 °C 29.87in /  1011.4hPa SW 13.0mph /  20.9km/h 27.0mph /  43.5km/h 89% 0.00in /  0mm
12:59 33.9 °F /  1.1 °C 31.0 °F /  -0.6 °C 29.87in /  1011.4hPa SW 12.0mph /  19.3km/h 27.0mph /  43.5km/h 89% 0.00in /  0mm
13:09 33.9 °F /  1.1 °C 31.0 °F /  -0.6 °C 29.87in /  1011.4hPa WSW 12.0mph /  19.3km/h 24.0mph /  38.6km/h 89% 0.00in /  0mm
13:14 34.0 °F /  1.1 °C 31.1 °F /  -0.5 °C 29.87in /  1011.4hPa WSW 12.0mph /  19.3km/h 24.0mph /  38.6km/h 89% 0.00in /  0mm
13:20 34.1 °F /  1.2 °C 31.2 °F /  -0.4 °C 29.87in /  1011.4hPa WSW 12.0mph /  19.3km/h 23.0mph /  37km/h 89% 0.00in /  0mm
13:24 34.0 °F /  1.1 °C 31.1 °F /  -0.5 °C 29.88in /  1011.7hPa SW 15.0mph /  24.1km/h 23.0mph /  37km/h 89% 0.00in /  0mm
13:34 34.1 °F /  1.2 °C 31.2 °F /  -0.4 °C 29.88in /  1011.7hPa South 10.0mph /  16.1km/h 23.0mph /  37km/h 89% 0.00in /  0mm
13:39 34.0 °F /  1.1 °C 31.1 °F /  -0.5 °C 29.87in /  1011.4hPa WSW 13.0mph /  20.9km/h 23.0mph /  37km/h 89% 0.00in /  0mm
13:44 34.1 °F /  1.2 °C 31.2 °F /  -0.4 °C 29.88in /  1011.7hPa SW 12.0mph /  19.3km/h 24.0mph /  38.6km/h 89% 0.00in /  0mm
13:49 34.1 °F /  1.2 °C 31.2 °F /  -0.4 °C 29.88in /  1011.7hPa SW 10.0mph /  16.1km/h 27.0mph /  43.5km/h 89% 0.00in /  0mm
13:54 34.2 °F /  1.2 °C 31.3 °F /  -0.4 °C 29.87in /  1011.4hPa SW 15.0mph /  24.1km/h 27.0mph /  43.5km/h 89% 0.00in /  0mm
14:00 34.2 °F /  1.2 °C 31.3 °F /  -0.4 °C 29.88in /  1011.7hPa WSW 14.0mph /  22.5km/h 27.0mph /  43.5km/h 89% 0.00in /  0mm
14:09 34.1 °F /  1.2 °C 31.2 °F /  -0.4 °C 29.88in /  1011.7hPa WSW 13.0mph /  20.9km/h 23.0mph /  37km/h 89% 0.00in /  0mm
14:14 34.1 °F /  1.2 °C 31.2 °F /  -0.4 °C 29.89in /  1012.1hPa SW 17.0mph /  27.4km/h 21.0mph /  33.8km/h 89% 0.00in /  0mm
14:19 34.0 °F /  1.1 °C 31.1 °F /  -0.5 °C 29.89in /  1012.1hPa WSW 23.0mph /  37km/h 28.0mph /  45.1km/h 89% 0.00in /  0mm
14:24 34.0 °F /  1.1 °C 31.1 °F /  -0.5 °C 29.88in /  1011.7hPa WSW 13.0mph /  20.9km/h 28.0mph /  45.1km/h 89% 0.00in /  0mm
14:30 34.0 °F /  1.1 °C 31.1 °F /  -0.5 °C 29.89in /  1012.1hPa WSW 14.0mph /  22.5km/h 22.0mph /  35.4km/h 89% 0.00in /  0mm
14:34 34.0 °F /  1.1 °C 31.1 °F /  -0.5 °C 29.88in /  1011.7hPa WSW 12.0mph /  19.3km/h 25.0mph /  40.2km/h 89% 0.00in /  0mm
14:40 34.0 °F /  1.1 °C 31.1 °F /  -0.5 °C 29.89in /  1012.1hPa WSW 12.0mph /  19.3km/h 25.0mph /  40.2km/h 89% 0.00in /  0mm
14:45 34.0 °F /  1.1 °C 31.1 °F /  -0.5 °C 29.89in /  1012.1hPa WSW 12.0mph /  19.3km/h 22.0mph /  35.4km/h 89% 0.00in /  0mm
14:54 33.9 °F /  1.1 °C 31.0 °F /  -0.6 °C 29.89in /  1012.1hPa SSW 12.0mph /  19.3km/h 24.0mph /  38.6km/h 89% 0.01in /  0.25mm
15:00 33.9 °F /  1.1 °C 31.0 °F /  -0.6 °C 29.89in /  1012.1hPa SW 16.0mph /  25.7km/h 23.0mph /  37km/h 89% 0.01in /  0.25mm
15:05 33.9 °F /  1.1 °C 31.0 °F /  -0.6 °C 29.89in /  1012.1hPa SW 12.0mph /  19.3km/h 23.0mph /  37km/h 89% 0.01in /  0.25mm
15:55 33.8 °F /  1 °C 31.2 °F /  -0.4 °C 29.89in /  1012.1hPa WSW 11.0mph /  17.7km/h 18.0mph /  29km/h 90% 0.02in /  0.51mm
16:15 33.8 °F /  1 °C 31.2 °F /  -0.4 °C 29.89in /  1012.1hPa SW 8.0mph /  12.9km/h 22.0mph /  35.4km/h 90% 0.03in /  0.76mm
16:35 33.8 °F /  1 °C 31.2 °F /  -0.4 °C 29.89in /  1012.1hPa WSW 12.0mph /  19.3km/h 21.0mph /  33.8km/h 90% 0.04in /  1.02mm
17:00 33.6 °F /  0.9 °C 31.3 °F /  -0.4 °C 29.89in /  1012.1hPa WSW 11.0mph /  17.7km/h 20.0mph /  32.2km/h 91% 0.06in /  1.52mm
17:15 33.5 °F /  0.8 °C 31.2 °F /  -0.4 °C 29.90in /  1012.4hPa WSW 10.0mph /  16.1km/h 22.0mph /  35.4km/h 91% 0.07in /  1.78mm
17:20 33.5 °F /  0.8 °C 31.2 °F /  -0.4 °C 29.90in /  1012.4hPa WSW 10.0mph /  16.1km/h 22.0mph /  35.4km/h 91% 0.07in /  1.78mm
17:35 33.6 °F /  0.9 °C 31.3 °F /  -0.4 °C 29.89in /  1012.1hPa WSW 11.0mph /  17.7km/h 22.0mph /  35.4km/h 91% 0.08in /  2.03mm
17:55 33.7 °F /  0.9 °C 31.4 °F /  -0.3 °C 29.90in /  1012.4hPa WSW 11.0mph /  17.7km/h 28.0mph /  45.1km/h 91% 0.08in /  2.03mm
18:00 33.7 °F /  0.9 °C 31.4 °F /  -0.3 °C 29.90in /  1012.4hPa WSW 10.0mph /  16.1km/h 21.0mph /  33.8km/h 91% 0.08in /  2.03mm
18:05 33.7 °F /  0.9 °C 31.4 °F /  -0.3 °C 29.91in /  1012.8hPa WSW 10.0mph /  16.1km/h 21.0mph /  33.8km/h 91% 0.07in /  1.78mm
18:10 33.6 °F /  0.9 °C 31.3 °F /  -0.4 °C 29.91in /  1012.8hPa WSW 10.0mph /  16.1km/h 22.0mph /  35.4km/h 91% 0.08in /  2.03mm
18:20 33.6 °F /  0.9 °C 31.3 °F /  -0.4 °C 29.91in /  1012.8hPa SW 4.0mph /  6.4km/h 22.0mph /  35.4km/h 91% 0.07in /  1.78mm
18:25 33.6 °F /  0.9 °C 31.3 °F /  -0.4 °C 29.92in /  1013.1hPa WSW 10.0mph /  16.1km/h 22.0mph /  35.4km/h 91% 0.08in /  2.03mm
18:40 33.6 °F /  0.9 °C 31.3 °F /  -0.4 °C 29.92in /  1013.1hPa WSW 10.0mph /  16.1km/h 21.0mph /  33.8km/h 91% 0.08in /  2.03mm
18:50 33.6 °F /  0.9 °C 31.0 °F /  -0.6 °C 29.92in /  1013.1hPa WSW 11.0mph /  17.7km/h 23.0mph /  37km/h 90% 0.08in /  2.03mm
18:54 33.7 °F /  0.9 °C 31.1 °F /  -0.5 °C 29.93in /  1013.4hPa WSW 11.0mph /  17.7km/h 19.0mph /  30.6km/h 90% 0.07in /  1.78mm
19:00 33.6 °F /  0.9 °C 31.0 °F /  -0.6 °C 29.93in /  1013.4hPa WSW 9.0mph /  14.5km/h 18.0mph /  29km/h 90% 0.06in /  1.52mm
19:05 33.6 °F /  0.9 °C 31.0 °F /  -0.6 °C 29.93in /  1013.4hPa WSW 10.0mph /  16.1km/h 21.0mph /  33.8km/h 90% 0.07in /  1.78mm
19:10 33.6 °F /  0.9 °C 31.0 °F /  -0.6 °C 29.93in /  1013.4hPa WSW 7.0mph /  11.3km/h 18.0mph /  29km/h 90% 0.06in /  1.52mm
19:14 33.7 °F /  0.9 °C 31.1 °F /  -0.5 °C 29.93in /  1013.4hPa WSW 10.0mph /  16.1km/h 20.0mph /  32.2km/h 90% 0.05in /  1.27mm
19:15 33.7 °F /  0.9 °C 31.1 °F /  -0.5 °C 29.93in /  1013.4hPa WSW 12.0mph /  19.3km/h 20.0mph /  32.2km/h 90% 0.06in /  1.52mm
19:25 33.7 °F /  0.9 °C 31.1 °F /  -0.5 °C 29.94in /  1013.8hPa WSW 11.0mph /  17.7km/h 21.0mph /  33.8km/h 90% 0.05in /  1.27mm
19:35 33.8 °F /  1 °C 30.9 °F /  -0.6 °C 29.95in /  1014.1hPa WSW 10.0mph /  16.1km/h 19.0mph /  30.6km/h 89% 0.04in /  1.02mm
19:40 33.8 °F /  1 °C 30.9 °F /  -0.6 °C 29.95in /  1014.1hPa West 8.0mph /  12.9km/h 18.0mph /  29km/h 89% 0.03in /  0.76mm
19:44 33.8 °F /  1 °C 30.9 °F /  -0.6 °C 29.94in /  1013.8hPa West 9.0mph /  14.5km/h 20.0mph /  32.2km/h 89% 0.03in /  0.76mm
19:45 33.8 °F /  1 °C 30.9 °F /  -0.6 °C 29.94in /  1013.8hPa WSW 10.0mph /  16.1km/h 20.0mph /  32.2km/h 89% 0.03in /  0.76mm
19:50 33.8 °F /  1 °C 30.9 °F /  -0.6 °C 29.94in /  1013.8hPa WSW 10.0mph /  16.1km/h 20.0mph /  32.2km/h 89% 0.03in /  0.76mm
19:54 33.8 °F /  1 °C 30.9 °F /  -0.6 °C 29.94in /  1013.8hPa WSW 11.0mph /  17.7km/h 23.0mph /  37km/h 89% 0.03in /  0.76mm
20:00 33.8 °F /  1 °C 30.6 °F /  -0.8 °C 29.94in /  1013.8hPa SW 14.0mph /  22.5km/h 17.0mph /  27.4km/h 88% 0.03in /  0.76mm
20:05 33.9 °F /  1.1 °C 30.7 °F /  -0.7 °C 29.94in /  1013.8hPa WNW 12.0mph /  19.3km/h 24.0mph /  38.6km/h 88% 0.02in /  0.51mm
20:10 33.9 °F /  1.1 °C 30.7 °F /  -0.7 °C 29.95in /  1014.1hPa WSW 11.0mph /  17.7km/h 24.0mph /  38.6km/h 88% 0.02in /  0.51mm
20:14 33.9 °F /  1.1 °C 30.7 °F /  -0.7 °C 29.94in /  1013.8hPa WSW 10.0mph /  16.1km/h 22.0mph /  35.4km/h 88% 0.02in /  0.51mm
20:24 34.0 °F /  1.1 °C 30.5 °F /  -0.8 °C 29.95in /  1014.1hPa WSW 11.0mph /  17.7km/h 24.0mph /  38.6km/h 87% 0.02in /  0.51mm
20:25 34.0 °F /  1.1 °C 30.5 °F /  -0.8 °C 29.95in /  1014.1hPa WSW 10.0mph /  16.1km/h 24.0mph /  38.6km/h 87% 0.02in /  0.51mm
20:29 34.0 °F /  1.1 °C 30.5 °F /  -0.8 °C 29.95in /  1014.1hPa WSW 12.0mph /  19.3km/h 24.0mph /  38.6km/h 87% 0.02in /  0.51mm
20:30 34.0 °F /  1.1 °C 30.5 °F /  -0.8 °C 29.95in /  1014.1hPa SSW 9.0mph /  14.5km/h 23.0mph /  37km/h 87% 0.02in /  0.51mm
20:34 34.0 °F /  1.1 °C 30.5 °F /  -0.8 °C 29.95in /  1014.1hPa WSW 12.0mph /  19.3km/h 26.0mph /  41.8km/h 87% 0.02in /  0.51mm
20:40 34.0 °F /  1.1 °C 30.5 °F /  -0.8 °C 29.95in /  1014.1hPa SW 10.0mph /  16.1km/h 19.0mph /  30.6km/h 87% 0.02in /  0.51mm
20:41 34.0 °F /  1.1 °C 30.5 °F /  -0.8 °C 29.95in /  1014.1hPa WSW 11.0mph /  17.7km/h 26.0mph /  41.8km/h 87% 0.02in /  0.51mm
20:45 34.0 °F /  1.1 °C 30.3 °F /  -0.9 °C 29.95in /  1014.1hPa SW 11.0mph /  17.7km/h 18.0mph /  29km/h 86% 0.02in /  0.51mm
20:49 34.0 °F /  1.1 °C 30.5 °F /  -0.8 °C 29.95in /  1014.1hPa WSW 8.0mph /  12.9km/h 18.0mph /  29km/h 87% 0.01in /  0.25mm
20:50 34.0 °F /  1.1 °C 30.5 °F /  -0.8 °C 29.95in /  1014.1hPa WSW 9.0mph /  14.5km/h 18.0mph /  29km/h 87% 0.01in /  0.25mm
20:54 34.0 °F /  1.1 °C 30.5 °F /  -0.8 °C 29.95in /  1014.1hPa West 15.0mph /  24.1km/h 20.0mph /  32.2km/h 87% 0.01in /  0.25mm
21:00 33.9 °F /  1.1 °C 30.2 °F /  -1 °C 29.95in /  1014.1hPa WSW 11.0mph /  17.7km/h 21.0mph /  33.8km/h 86% 0.02in /  0.51mm
21:05 33.9 °F /  1.1 °C 30.2 °F /  -1 °C 29.95in /  1014.1hPa WSW 11.0mph /  17.7km/h 23.0mph /  37km/h 86% 0.02in /  0.51mm
21:14 33.9 °F /  1.1 °C 30.2 °F /  -1 °C 29.95in /  1014.1hPa SW 12.0mph /  19.3km/h 22.0mph /  35.4km/h 86% 0.02in /  0.51mm
21:20 33.9 °F /  1.1 °C 30.2 °F /  -1 °C 29.95in /  1014.1hPa WSW 12.0mph /  19.3km/h 22.0mph /  35.4km/h 86% 0.02in /  0.51mm
21:24 33.9 °F /  1.1 °C 30.2 °F /  -1 °C 29.95in /  1014.1hPa West 22.0mph /  35.4km/h 23.0mph /  37km/h 86% 0.01in /  0.25mm
21:25 33.9 °F /  1.1 °C 30.2 °F /  -1 °C 29.95in /  1014.1hPa WSW 13.0mph /  20.9km/h 23.0mph /  37km/h 86% 0.01in /  0.25mm
21:29 33.9 °F /  1.1 °C 30.2 °F /  -1 °C 29.95in /  1014.1hPa WSW 12.0mph /  19.3km/h 23.0mph /  37km/h 86% 0.01in /  0.25mm
21:34 33.8 °F /  1 °C 30.1 °F /  -1.1 °C 29.95in /  1014.1hPa SSW 13.0mph /  20.9km/h 22.0mph /  35.4km/h 86% 0.01in /  0.25mm
21:39 33.9 °F /  1.1 °C 30.2 °F /  -1 °C 29.95in /  1014.1hPa WSW 8.0mph /  12.9km/h 22.0mph /  35.4km/h 86% 0.01in /  0.25mm
21:44 33.8 °F /  1 °C 30.1 °F /  -1.1 °C 29.95in /  1014.1hPa WSW 11.0mph /  17.7km/h 22.0mph /  35.4km/h 86% 0.02in /  0.51mm
21:50 33.8 °F /  1 °C 30.1 °F /  -1.1 °C 29.95in /  1014.1hPa WSW 10.0mph /  16.1km/h 22.0mph /  35.4km/h 86% 0.02in /  0.51mm
21:54 33.8 °F /  1 °C 30.1 °F /  -1.1 °C 29.95in /  1014.1hPa West 12.0mph /  19.3km/h 22.0mph /  35.4km/h 86% 0.02in /  0.51mm
21:59 33.8 °F /  1 °C 30.1 °F /  -1.1 °C 29.95in /  1014.1hPa West 7.0mph /  11.3km/h 22.0mph /  35.4km/h 86% 0.01in /  0.25mm
22:04 33.8 °F /  1 °C 30.1 °F /  -1.1 °C 29.95in /  1014.1hPa WSW 11.0mph /  17.7km/h 23.0mph /  37km/h 86% 0.01in /  0.25mm
22:10 33.8 °F /  1 °C 30.3 °F /  -0.9 °C 29.96in /  1014.4hPa WSW 10.0mph /  16.1km/h 23.0mph /  37km/h 87% 0.01in /  0.25mm
22:14 33.7 °F /  0.9 °C 30.2 °F /  -1 °C 29.96in /  1014.4hPa SW 11.0mph /  17.7km/h 18.0mph /  29km/h 87% 0.01in /  0.25mm
22:24 33.7 °F /  0.9 °C 30.2 °F /  -1 °C 29.96in /  1014.4hPa SSW 9.0mph /  14.5km/h 18.0mph /  29km/h 87% 0.01in /  0.25mm
22:29 33.7 °F /  0.9 °C 30.2 °F /  -1 °C 29.96in /  1014.4hPa WSW 11.0mph /  17.7km/h 21.0mph /  33.8km/h 87% 0.02in /  0.51mm
22:34 33.7 °F /  0.9 °C 30.2 °F /  -1 °C 29.96in /  1014.4hPa WSW 11.0mph /  17.7km/h 24.0mph /  38.6km/h 87% 0.02in /  0.51mm
22:39 33.7 °F /  0.9 °C 30.2 °F /  -1 °C 29.96in /  1014.4hPa SW 13.0mph /  20.9km/h 23.0mph /  37km/h 87% 0.02in /  0.51mm
22:54 33.6 °F /  0.9 °C 30.1 °F /  -1.1 °C 29.97in /  1014.8hPa WSW 11.0mph /  17.7km/h 18.0mph /  29km/h 87% 0.01in /  0.25mm
22:59 33.5 °F /  0.8 °C 30.0 °F /  -1.1 °C 29.97in /  1014.8hPa WSW 13.0mph /  20.9km/h 18.0mph /  29km/h 87% 0.01in /  0.25mm
23:04 33.5 °F /  0.8 °C 30.0 °F /  -1.1 °C 29.97in /  1014.8hPa WSW 11.0mph /  17.7km/h 19.0mph /  30.6km/h 87% 0.01in /  0.25mm
23:14 33.5 °F /  0.8 °C 30.0 °F /  -1.1 °C 29.97in /  1014.8hPa WSW 10.0mph /  16.1km/h 20.0mph /  32.2km/h 87% 0.01in /  0.25mm
23:19 33.5 °F /  0.8 °C 30.0 °F /  -1.1 °C 29.98in /  1015.1hPa SW 13.0mph /  20.9km/h 19.0mph /  30.6km/h 87% 0.01in /  0.25mm
23:24 33.5 °F /  0.8 °C 30.0 °F /  -1.1 °C 29.98in /  1015.1hPa WSW 11.0mph /  17.7km/h 20.0mph /  32.2km/h 87% 0.01in /  0.25mm
23:29 33.4 °F /  0.8 °C 29.9 °F /  -1.2 °C 29.98in /  1015.1hPa WSW 11.0mph /  17.7km/h 22.0mph /  35.4km/h 87% 0.00in /  0mm
23:34 33.4 °F /  0.8 °C 29.9 °F /  -1.2 °C 29.98in /  1015.1hPa WSW 11.0mph /  17.7km/h 24.0mph /  38.6km/h 87% 0.01in /  0.25mm
23:40 33.4 °F /  0.8 °C 29.9 °F /  -1.2 °C 29.98in /  1015.1hPa WSW 12.0mph /  19.3km/h 24.0mph /  38.6km/h 87% 0.01in /  0.25mm
23:44 33.3 °F /  0.7 °C 29.8 °F /  -1.2 °C 29.98in /  1015.1hPa WSW 7.0mph /  11.3km/h 18.0mph /  29km/h 87% 0.01in /  0.25mm
23:49 33.3 °F /  0.7 °C 29.8 °F /  -1.2 °C 29.98in /  1015.1hPa WSW 10.0mph /  16.1km/h 25.0mph /  40.2km/h 87% 0.01in /  0.25mm
23:54 33.3 °F /  0.7 °C 29.8 °F /  -1.2 °C 29.98in /  1015.1hPa WSW 11.0mph /  17.7km/h 25.0mph /  40.2km/h 87% 0.01in /  0.25mm
Buffalo, New York, USA
Compliments of Weather Underground - 1.75 mb